Time;durP1;ratioP1;P1;durP2;ratioP2;P2;SDS_P1;SDS_P2;PMS_P1;PMS_P2;Temp;Humidity;BMP_temperature;BMP_pressure;BME280_temperature;BME280_humidity;BME280_pressure;Samples;Min_cycle;Max_cycle;Signal;HPM_P1;HPM_P2
2021/09/14 00:01:23;;;;;;;12.40;7.70;;;;;;;;;;5033907;28;20554;-63
2021/09/14 00:03:50;;;;;;;11.37;7.80;;;;;;;;;;5033445;28;20447;-64
2021/09/14 00:06:18;;;;;;;9.97;7.83;;;;;;;;;;5033808;28;20453;-63
2021/09/14 00:08:45;;;;;;;10.83;7.60;;;;;;;;;;5033716;28;20850;-64
2021/09/14 00:11:12;;;;;;;9.80;7.27;;;;;;;;;;5034005;28;20455;-64
2021/09/14 00:13:41;;;;;;;8.00;5.87;;;;;;;;;;5034996;28;20486;-63
2021/09/14 00:16:08;;;;;;;13.77;8.93;;;;;;;;;;5033806;28;20467;-63
2021/09/14 00:18:35;;;;;;;13.50;6.97;;;;;;;;;;5033431;28;20503;-63
2021/09/14 00:21:03;;;;;;;11.53;7.47;;;;;;;;;;5032978;28;20453;-63
2021/09/14 00:23:31;;;;;;;9.93;6.73;;;;;;;;;;5034124;28;20510;-63
2021/09/14 00:25:58;;;;;;;10.73;7.90;;;;;;;;;;5037785;28;20471;-63
2021/09/14 00:28:25;;;;;;;13.10;7.93;;;;;;;;;;5037254;28;20444;-64
2021/09/14 00:30:53;;;;;;;10.53;8.00;;;;;;;;;;5037485;28;20448;-64
2021/09/14 00:33:21;;;;;;;11.43;8.10;;;;;;;;;;5037320;28;20481;-64
2021/09/14 00:35:48;;;;;;;9.17;6.43;;;;;;;;;;5037006;28;20526;-64
2021/09/14 00:38:15;;;;;;;12.43;8.13;;;;;;;;;;5037198;28;20448;-64
2021/09/14 00:40:42;;;;;;;11.60;7.33;;;;;;;;;;5037316;28;20457;-64
2021/09/14 00:43:10;;;;;;;11.10;6.90;;;;;;;;;;5036875;28;20930;-63
2021/09/14 00:45:37;;;;;;;14.30;7.57;;;;;;;;;;5036835;28;20534;-64
2021/09/14 00:48:06;;;;;;;13.10;7.40;;;;;;;;;;5037355;28;20444;-64
2021/09/14 00:50:34;;;;;;;8.40;6.00;;;;;;;;;;5036688;28;20935;-64
2021/09/14 00:53:01;;;;;;;10.77;7.73;;;;;;;;;;5036840;28;20476;-64
2021/09/14 00:55:29;;;;;;;15.13;7.60;;;;;;;;;;5036836;28;20531;-64
2021/09/14 00:57:56;;;;;;;8.30;6.10;;;;;;;;;;5036529;28;20941;-63
2021/09/14 01:00:23;;;;;;;11.10;7.00;;;;;;;;;;5036603;28;20444;-64
2021/09/14 01:02:51;;;;;;;10.90;6.70;;;;;;;;;;5036676;28;20499;-64
2021/09/14 01:05:19;;;;;;;9.23;7.27;;;;;;;;;;5036918;28;20468;-64
2021/09/14 01:07:47;;;;;;;10.53;6.93;;;;;;;;;;5036943;28;20515;-64
2021/09/14 01:10:15;;;;;;;9.60;8.57;;;;;;;;;;5036835;28;20451;-64
2021/09/14 01:12:42;;;;;;;11.40;7.60;;;;;;;;;;5036701;28;20448;-64
2021/09/14 01:15:10;;;;;;;14.40;8.47;;;;;;;;;;5036814;28;20466;-64
2021/09/14 01:17:37;;;;;;;10.20;8.00;;;;;;;;;;5036952;28;20443;-64
2021/09/14 01:20:05;;;;;;;15.40;7.90;;;;;;;;;;5036724;28;20452;-64
2021/09/14 01:22:34;;;;;;;10.30;8.30;;;;;;;;;;5036307;28;20863;-64
2021/09/14 01:25:02;;;;;;;8.63;7.10;;;;;;;;;;5036292;28;20470;-64
2021/09/14 01:27:29;;;;;;;11.00;9.80;;;;;;;;;;5036085;28;20451;-64
2021/09/14 01:30:13;;;;;;;9.80;7.10;;;;;;;;;;5036705;28;20443;-64
2021/09/14 01:32:41;;;;;;;10.67;8.20;;;;;;;;;;5036424;28;20907;-64
2021/09/14 01:35:09;;;;;;;9.37;7.30;;;;;;;;;;5035304;28;21059;-64
2021/09/14 01:37:38;;;;;;;10.47;7.03;;;;;;;;;;5036426;28;20875;-64
2021/09/14 01:40:05;;;;;;;13.17;7.57;;;;;;;;;;5037035;28;20446;-64
2021/09/14 01:42:33;;;;;;;12.00;8.27;;;;;;;;;;5036914;28;20503;-64
2021/09/14 01:45:00;;;;;;;13.40;8.43;;;;;;;;;;5035831;28;20968;-64
2021/09/14 01:47:27;;;;;;;11.70;7.77;;;;;;;;;;5035910;28;20452;-63
2021/09/14 01:49:55;;;;;;;10.40;7.93;;;;;;;;;;5042491;28;20866;-64
2021/09/14 01:52:22;;;;;;;10.33;6.83;;;;;;;;;;5037523;28;20460;-64
2021/09/14 01:54:51;;;;;;;13.63;7.17;;;;;;;;;;5035684;28;20490;-64
2021/09/14 01:57:21;;;;;;;8.23;6.70;;;;;;;;;;5036051;28;20496;-63
2021/09/14 01:59:51;;;;;;;9.13;7.20;;;;;;;;;;5036138;28;20519;-64
2021/09/14 02:02:25;;;;;;;8.97;6.63;;;;;;;;;;5036049;28;20458;-64
2021/09/14 02:04:56;;;;;;;8.83;7.23;;;;;;;;;;5035852;28;20467;-64
2021/09/14 02:24:37;;;;;;;11.33;8.10;;;;;;;;;;5032110;28;20459;-64
2021/09/14 02:30:16;;;;;;;11.83;7.77;;;;;;;;;;5018217;28;20569;-63
2021/09/14 02:38:29;;;;;;;9.37;7.70;;;;;;;;;;5034918;28;20398;-65
2021/09/14 03:00:06;;;;;;;13.40;8.20;;;;;;;;;;5033858;28;20427;-64
2021/09/14 03:02:34;;;;;;;12.27;7.93;;;;;;;;;;5033658;28;20501;-64
2021/09/14 03:05:02;;;;;;;10.10;8.37;;;;;;;;;;5033902;28;20467;-64
2021/09/14 03:07:30;;;;;;;12.63;9.03;;;;;;;;;;5033890;28;20456;-64
2021/09/14 03:09:57;;;;;;;10.47;8.40;;;;;;;;;;5033857;28;20878;-63
2021/09/14 03:12:24;;;;;;;13.17;8.60;;;;;;;;;;5033865;28;20462;-63
2021/09/14 03:14:51;;;;;;;12.80;8.93;;;;;;;;;;5033413;28;20557;-63
2021/09/14 03:17:20;;;;;;;14.27;8.27;;;;;;;;;;5033643;28;20460;-63
2021/09/14 03:19:47;;;;;;;12.87;8.23;;;;;;;;;;5033328;28;20505;-63
2021/09/14 03:22:14;;;;;;;10.10;8.00;;;;;;;;;;5033624;28;20891;-63
2021/09/14 03:24:42;;;;;;;15.83;9.10;;;;;;;;;;5033184;28;20979;-63
2021/09/14 03:27:09;;;;;;;15.70;9.00;;;;;;;;;;5033412;28;20451;-63
2021/09/14 03:29:36;;;;;;;12.93;9.30;;;;;;;;;;5033300;28;20934;-64
2021/09/14 03:32:04;;;;;;;15.10;9.40;;;;;;;;;;5033586;28;20527;-63
2021/09/14 03:34:32;;;;;;;15.47;8.97;;;;;;;;;;5033338;28;20486;-64
2021/09/14 03:37:00;;;;;;;13.00;9.10;;;;;;;;;;5033370;28;20942;-63
2021/09/14 03:39:27;;;;;;;13.40;8.97;;;;;;;;;;5033257;28;20885;-63
2021/09/14 03:41:54;;;;;;;14.20;8.43;;;;;;;;;;5033085;28;20444;-63
2021/09/14 03:44:21;;;;;;;14.63;9.90;;;;;;;;;;5033225;28;20537;-63
2021/09/14 03:46:49;;;;;;;16.63;9.50;;;;;;;;;;5033537;28;20513;-63
2021/09/14 03:49:16;;;;;;;18.53;9.63;;;;;;;;;;5032978;28;20919;-63
2021/09/14 03:51:44;;;;;;;13.83;8.93;;;;;;;;;;5033121;28;20570;-63
2021/09/14 03:54:12;;;;;;;13.53;9.37;;;;;;;;;;5033210;28;20499;-63
2021/09/14 03:56:39;;;;;;;13.80;8.93;;;;;;;;;;5033668;28;20856;-63
2021/09/14 03:59:06;;;;;;;17.70;9.80;;;;;;;;;;5034244;28;20444;-63
2021/09/14 04:01:37;;;;;;;13.27;9.77;;;;;;;;;;5034814;28;20457;-63
2021/09/14 04:04:10;;;;;;;13.77;9.23;;;;;;;;;;5033190;28;20435;-63
2021/09/14 04:08:52;;;;;;;11.23;9.00;;;;;;;;;;5091352;27;20561;-63
2021/09/14 04:11:21;;;;;;;13.80;9.30;;;;;;;;;;5090875;28;20499;-65
2021/09/14 04:13:48;;;;;;;16.10;10.53;;;;;;;;;;5093002;28;20495;-63
2021/09/14 04:16:15;;;;;;;16.83;10.60;;;;;;;;;;5090597;28;20924;-60
2021/09/14 04:18:42;;;;;;;14.90;10.43;;;;;;;;;;5090290;28;20503;-63
2021/09/14 04:21:10;;;;;;;15.73;10.70;;;;;;;;;;5090322;28;20523;-63
2021/09/14 04:23:38;;;;;;;19.27;10.20;;;;;;;;;;5090490;28;20449;-64
2021/09/14 04:26:06;;;;;;;14.77;9.67;;;;;;;;;;5090909;28;20472;-64
2021/09/14 04:28:33;;;;;;;12.37;10.30;;;;;;;;;;5090150;28;20484;-65
2021/09/14 04:31:01;;;;;;;15.73;11.00;;;;;;;;;;5090838;28;20445;-65
2021/09/14 04:33:28;;;;;;;16.00;10.67;;;;;;;;;;5090360;28;20498;-65
2021/09/14 04:35:55;;;;;;;16.00;10.40;;;;;;;;;;5089938;28;20472;-65
2021/09/14 04:38:22;;;;;;;20.57;10.67;;;;;;;;;;5090973;28;20526;-64
2021/09/14 04:40:52;;;;;;;16.43;10.37;;;;;;;;;;5091186;28;20936;-64
2021/09/14 04:43:19;;;;;;;17.73;9.90;;;;;;;;;;5091295;28;20451;-63
2021/09/14 04:45:46;;;;;;;21.53;10.37;;;;;;;;;;5095559;28;20468;-64
2021/09/14 04:48:13;;;;;;;16.93;11.03;;;;;;;;;;5094676;28;20476;-64
2021/09/14 04:50:41;;;;;;;17.93;9.97;;;;;;;;;;5095219;28;20925;-64
2021/09/14 04:53:08;;;;;;;19.80;10.20;;;;;;;;;;5095711;28;20936;-63
2021/09/14 04:55:35;;;;;;;15.10;8.93;;;;;;;;;;5097875;28;20556;-64
2021/09/14 04:58:04;;;;;;;14.37;10.30;;;;;;;;;;5093578;28;20437;-64
2021/09/14 05:00:31;;;;;;;18.33;9.57;;;;;;;;;;5092148;28;20479;-63
2021/09/14 05:02:59;;;;;;;16.70;10.03;;;;;;;;;;5092624;28;20453;-65
2021/09/14 05:05:26;;;;;;;17.13;9.63;;;;;;;;;;5102141;28;20470;-64
2021/09/14 05:07:54;;;;;;;20.97;10.73;;;;;;;;;;5102794;28;20481;-65
2021/09/14 05:10:21;;;;;;;17.03;10.13;;;;;;;;;;5101953;28;20441;-63
2021/09/14 05:12:48;;;;;;;18.53;11.00;;;;;;;;;;5100599;28;20445;-65
2021/09/14 05:15:17;;;;;;;19.87;10.07;;;;;;;;;;5101014;28;20624;-63
2021/09/14 05:17:44;;;;;;;20.60;9.90;;;;;;;;;;5097668;28;20785;-64
2021/09/14 05:20:13;;;;;;;17.70;12.00;;;;;;;;;;5084156;28;21006;-64
2021/09/14 05:22:40;;;;;;;21.57;10.20;;;;;;;;;;5083799;28;20553;-65
2021/09/14 05:25:08;;;;;;;12.47;9.17;;;;;;;;;;5079159;28;20469;-63
2021/09/14 05:27:35;;;;;;;13.20;9.23;;;;;;;;;;5078842;28;20473;-63
2021/09/14 05:30:03;;;;;;;20.77;10.43;;;;;;;;;;5079195;28;20449;-65
2021/09/14 05:32:31;;;;;;;15.40;9.77;;;;;;;;;;5078549;28;20499;-64
2021/09/14 05:34:59;;;;;;;13.47;9.77;;;;;;;;;;5078382;28;20529;-64
2021/09/14 05:37:26;;;;;;;13.30;10.17;;;;;;;;;;5079027;28;20869;-63
2021/09/14 05:39:54;;;;;;;14.30;10.33;;;;;;;;;;5078220;28;20441;-64
2021/09/14 05:42:21;;;;;;;16.20;10.03;;;;;;;;;;5087179;28;20474;-63
2021/09/14 05:44:48;;;;;;;11.80;9.03;;;;;;;;;;5082619;28;20469;-65
2021/09/14 05:47:15;;;;;;;13.57;9.77;;;;;;;;;;5083539;28;20532;-65
2021/09/14 05:49:44;;;;;;;14.13;9.00;;;;;;;;;;5082988;28;20439;-63
2021/09/14 05:52:11;;;;;;;13.60;10.60;;;;;;;;;;5083304;28;20448;-64
2021/09/14 05:54:38;;;;;;;11.93;9.17;;;;;;;;;;5081235;28;20463;-64
2021/09/14 05:57:06;;;;;;;11.43;8.47;;;;;;;;;;5080329;28;21000;-63
2021/09/14 05:59:33;;;;;;;12.60;9.40;;;;;;;;;;5078847;28;20445;-65
2021/09/14 06:02:00;;;;;;;13.60;9.00;;;;;;;;;;5078390;28;20499;-66
2021/09/14 06:04:27;;;;;;;16.67;8.47;;;;;;;;;;5078724;28;20462;-65
2021/09/14 06:06:56;;;;;;;11.37;8.47;;;;;;;;;;5078294;28;20516;-66
2021/09/14 06:09:23;;;;;;;15.70;8.47;;;;;;;;;;5076047;28;20444;-64
2021/09/14 06:11:50;;;;;;;15.40;9.83;;;;;;;;;;5076150;28;20449;-64
2021/09/14 06:14:17;;;;;;;11.90;8.63;;;;;;;;;;5077937;28;20972;-62
2021/09/14 06:16:45;;;;;;;11.70;9.87;;;;;;;;;;5076394;28;20442;-64
2021/09/14 06:19:12;;;;;;;8.80;7.73;;;;;;;;;;5076818;28;20447;-64
2021/09/14 06:21:39;;;;;;;12.50;8.63;;;;;;;;;;5076588;28;20482;-64
2021/09/14 06:24:08;;;;;;;11.57;7.67;;;;;;;;;;5076396;28;20458;-65
2021/09/14 06:26:36;;;;;;;14.27;8.70;;;;;;;;;;5078376;28;20804;-65
2021/09/14 06:29:03;;;;;;;12.93;8.40;;;;;;;;;;5081796;28;20479;-64
2021/09/14 06:31:30;;;;;;;11.67;8.70;;;;;;;;;;5079780;28;20531;-64
2021/09/14 06:33:58;;;;;;;11.13;8.20;;;;;;;;;;5078873;28;20814;-64
2021/09/14 06:36:25;;;;;;;8.57;7.23;;;;;;;;;;5075424;28;20441;-65
2021/09/14 06:38:52;;;;;;;13.33;8.47;;;;;;;;;;5076120;28;20497;-64
2021/09/14 06:41:21;;;;;;;11.03;8.70;;;;;;;;;;5075152;28;20448;-65
2021/09/14 06:43:48;;;;;;;9.27;7.90;;;;;;;;;;5076102;28;20868;-65
2021/09/14 06:46:16;;;;;;;9.30;8.13;;;;;;;;;;5079643;28;20538;-65
2021/09/14 06:48:43;;;;;;;11.33;8.13;;;;;;;;;;5078483;28;20526;-65
2021/09/14 06:51:10;;;;;;;14.43;8.83;;;;;;;;;;5076390;28;20443;-64
2021/09/14 06:53:37;;;;;;;10.60;8.57;;;;;;;;;;5079776;28;20800;-64
2021/09/14 06:56:06;;;;;;;9.50;7.77;;;;;;;;;;5081781;28;20469;-65
2021/09/14 06:58:35;;;;;;;9.87;8.83;;;;;;;;;;5084114;28;20446;-65
2021/09/14 07:01:02;;;;;;;10.13;8.30;;;;;;;;;;5079247;28;20456;-64
2021/09/14 07:03:29;;;;;;;12.23;9.17;;;;;;;;;;5078689;28;20470;-63
2021/09/14 07:05:57;;;;;;;11.87;9.00;;;;;;;;;;5078396;28;20514;-66
2021/09/14 07:08:24;;;;;;;12.73;8.63;;;;;;;;;;5075125;28;20493;-64
2021/09/14 07:10:51;;;;;;;16.00;10.20;;;;;;;;;;5075241;28;20511;-66
2021/09/14 07:13:18;;;;;;;39.87;10.70;;;;;;;;;;5076658;28;20491;-66
2021/09/14 07:15:47;;;;;;;21.17;10.03;;;;;;;;;;5076873;28;20523;-64
2021/09/14 07:18:14;;;;;;;14.97;8.60;;;;;;;;;;5076291;28;20450;-63
2021/09/14 07:20:41;;;;;;;90.23;15.30;;;;;;;;;;5075229;28;20514;-65
2021/09/14 07:23:09;;;;;;;20.40;10.00;;;;;;;;;;5075308;28;20496;-64
2021/09/14 07:25:39;;;;;;;19.73;10.00;;;;;;;;;;5076422;28;20535;-64
2021/09/14 07:28:06;;;;;;;17.57;9.03;;;;;;;;;;5075480;28;20534;-65
2021/09/14 07:30:34;;;;;;;9.63;8.47;;;;;;;;;;5076675;28;20518;-65
2021/09/14 07:33:02;;;;;;;11.27;8.50;;;;;;;;;;5077013;28;20491;-64
2021/09/14 07:35:30;;;;;;;13.50;8.50;;;;;;;;;;5075688;28;20469;-64
2021/09/14 07:37:57;;;;;;;12.73;9.23;;;;;;;;;;5074047;28;20492;-64
2021/09/14 07:40:25;;;;;;;12.07;8.57;;;;;;;;;;5073943;28;20471;-64
2021/09/14 07:42:53;;;;;;;12.70;8.10;;;;;;;;;;5073193;28;20446;-64
2021/09/14 07:45:20;;;;;;;10.20;8.30;;;;;;;;;;5073199;28;20581;-64
2021/09/14 07:47:47;;;;;;;11.57;9.20;;;;;;;;;;5072967;28;20478;-65
2021/09/14 07:50:16;;;;;;;11.03;9.30;;;;;;;;;;5073408;28;20453;-65
2021/09/14 07:52:43;;;;;;;10.30;8.93;;;;;;;;;;5073410;28;20441;-64
2021/09/14 07:55:11;;;;;;;18.07;9.20;;;;;;;;;;5073262;28;20527;-65
2021/09/14 07:57:38;;;;;;;12.83;8.40;;;;;;;;;;5073044;28;20444;-65
2021/09/14 08:00:06;;;;;;;10.27;8.07;;;;;;;;;;5073108;28;20445;-65
2021/09/14 08:02:33;;;;;;;10.07;9.07;;;;;;;;;;5072952;28;20450;-65
2021/09/14 08:05:00;;;;;;;10.57;8.63;;;;;;;;;;5072690;28;20473;-65
2021/09/14 08:07:29;;;;;;;11.83;9.30;;;;;;;;;;5072627;28;20512;-64
2021/09/14 08:09:56;;;;;;;18.07;9.30;;;;;;;;;;5072719;28;20506;-64
2021/09/14 08:12:23;;;;;;;12.77;7.60;;;;;;;;;;5073040;28;20450;-63
2021/09/14 08:14:51;;;;;;;49.47;10.63;;;;;;;;;;5073174;28;20466;-63
2021/09/14 08:17:18;;;;;;;12.90;9.20;;;;;;;;;;5073011;28;20481;-64
2021/09/14 08:19:45;;;;;;;9.50;7.03;;;;;;;;;;5081213;28;20496;-64
2021/09/14 08:22:13;;;;;;;10.20;8.10;;;;;;;;;;5078369;28;20455;-64
2021/09/14 08:24:41;;;;;;;10.93;8.40;;;;;;;;;;5073236;28;20474;-64
2021/09/14 08:27:08;;;;;;;10.40;8.20;;;;;;;;;;5072606;28;20454;-64
2021/09/14 08:29:36;;;;;;;9.40;8.40;;;;;;;;;;5073256;28;20483;-62
2021/09/14 08:32:03;;;;;;;18.20;9.33;;;;;;;;;;5073385;28;20447;-64
2021/09/14 08:34:31;;;;;;;11.20;9.40;;;;;;;;;;5073296;28;20471;-64
2021/09/14 08:36:58;;;;;;;9.13;7.87;;;;;;;;;;5073207;28;20958;-65
2021/09/14 08:39:25;;;;;;;8.87;8.07;;;;;;;;;;5072904;28;20440;-65
2021/09/14 08:41:54;;;;;;;11.03;7.73;;;;;;;;;;5075339;28;20531;-64
2021/09/14 08:44:21;;;;;;;12.30;9.80;;;;;;;;;;5078773;28;20466;-65
2021/09/14 08:46:49;;;;;;;14.20;8.70;;;;;;;;;;5079687;28;20877;-65
2021/09/14 08:49:16;;;;;;;9.97;8.90;;;;;;;;;;5078025;28;20510;-65
2021/09/14 08:51:43;;;;;;;10.27;8.90;;;;;;;;;;5074140;28;20455;-65
2021/09/14 08:54:10;;;;;;;9.20;8.30;;;;;;;;;;5074287;28;20475;-63
2021/09/14 08:56:38;;;;;;;10.13;8.63;;;;;;;;;;5076452;28;20525;-63
2021/09/14 08:59:06;;;;;;;13.93;9.83;;;;;;;;;;5076196;28;20444;-65
2021/09/14 09:01:34;;;;;;;12.50;9.07;;;;;;;;;;5076179;28;20447;-65
2021/09/14 09:04:02;;;;;;;11.27;9.07;;;;;;;;;;5076006;28;20930;-64
2021/09/14 09:06:32;;;;;;;16.90;8.97;;;;;;;;;;5075879;28;20978;-64
2021/09/14 09:09:09;;;;;;;11.53;8.70;;;;;;;;;;5076099;28;20468;-64
2021/09/14 09:11:36;;;;;;;11.53;9.80;;;;;;;;;;5076795;28;20505;-63
2021/09/14 09:14:05;;;;;;;21.70;10.00;;;;;;;;;;5076545;28;20452;-66
2021/09/14 09:16:33;;;;;;;12.70;9.00;;;;;;;;;;5075972;28;20530;-63
2021/09/14 09:19:01;;;;;;;18.03;9.40;;;;;;;;;;5075531;28;20456;-65
2021/09/14 09:21:29;;;;;;;11.30;8.20;;;;;;;;;;5075885;28;20502;-65
2021/09/14 09:23:56;;;;;;;9.80;8.80;;;;;;;;;;5075687;28;20449;-65
2021/09/14 09:26:30;;;;;;;9.90;8.60;;;;;;;;;;5076002;28;20448;-63
2021/09/14 09:28:59;;;;;;;10.17;9.17;;;;;;;;;;5076901;28;20542;-65
2021/09/14 09:31:26;;;;;;;10.27;9.07;;;;;;;;;;5075975;28;20476;-64
2021/09/14 09:34:02;;;;;;;14.10;9.47;;;;;;;;;;5075953;28;20497;-64
2021/09/14 09:36:31;;;;;;;10.93;9.40;;;;;;;;;;5075907;28;20440;-65
2021/09/14 09:38:59;;;;;;;11.13;9.70;;;;;;;;;;5075069;28;20499;-64
2021/09/14 09:41:26;;;;;;;11.90;10.07;;;;;;;;;;5075391;28;20520;-64
2021/09/14 09:44:04;;;;;;;15.37;10.93;;;;;;;;;;5074951;28;20926;-64
2021/09/14 09:46:31;;;;;;;11.70;9.53;;;;;;;;;;5074994;28;20478;-64
2021/09/14 09:49:01;;;;;;;13.40;10.00;;;;;;;;;;5074667;28;20554;-64
2021/09/14 09:51:29;;;;;;;11.13;9.37;;;;;;;;;;5075886;28;20445;-64
2021/09/14 09:53:57;;;;;;;13.73;10.40;;;;;;;;;;5075296;28;20450;-65
2021/09/14 09:56:24;;;;;;;15.37;10.83;;;;;;;;;;5075186;28;20495;-64
2021/09/14 09:58:52;;;;;;;16.60;11.13;;;;;;;;;;5074983;28;20449;-66
2021/09/14 10:01:21;;;;;;;18.23;10.67;;;;;;;;;;5074796;28;20456;-64
2021/09/14 10:03:53;;;;;;;17.83;10.67;;;;;;;;;;5074330;28;20450;-64
2021/09/14 10:06:21;;;;;;;14.10;9.47;;;;;;;;;;5074229;28;20426;-64
2021/09/14 10:08:57;;;;;;;17.60;9.53;;;;;;;;;;5075006;28;20776;-64
2021/09/14 10:11:25;;;;;;;25.80;10.07;;;;;;;;;;5074442;28;20796;-64
2021/09/14 10:13:52;;;;;;;24.60;9.60;;;;;;;;;;5074884;28;20525;-64
2021/09/14 10:16:24;;;;;;;17.97;9.17;;;;;;;;;;5075459;28;20491;-65
2021/09/14 10:18:51;;;;;;;11.27;10.07;;;;;;;;;;5074501;28;20457;-63
2021/09/14 10:21:20;;;;;;;11.40;10.20;;;;;;;;;;5074890;28;20911;-66
2021/09/14 10:23:54;;;;;;;11.23;8.80;;;;;;;;;;5080382;28;20553;-65
2021/09/14 10:26:32;;;;;;;10.63;9.00;;;;;;;;;;5076305;28;20491;-63
2021/09/14 10:28:59;;;;;;;9.90;9.00;;;;;;;;;;5074390;28;20554;-63
2021/09/14 10:31:28;;;;;;;9.93;8.60;;;;;;;;;;5074039;28;20991;-63
2021/09/14 10:34:02;;;;;;;10.10;9.10;;;;;;;;;;5073188;28;20446;-65
2021/09/14 10:36:29;;;;;;;8.53;7.70;;;;;;;;;;5073875;28;20525;-63
2021/09/14 10:38:57;;;;;;;11.00;9.87;;;;;;;;;;5073856;28;20485;-63
2021/09/14 10:41:35;;;;;;;25.33;11.20;;;;;;;;;;5073550;28;20951;-66
2021/09/14 10:46:36;;;;;;;10.97;9.77;;;;;;;;;;5060792;22;20487;-59
2021/09/14 10:49:14;;;;;;;13.63;8.60;;;;;;;;;;5033028;28;20579;-60
2021/09/14 10:51:41;;;;;;;20.23;9.57;;;;;;;;;;5033600;28;20952;-57
2021/09/14 10:54:08;;;;;;;20.40;9.20;;;;;;;;;;5033803;28;20452;-60
2021/09/14 10:56:47;;;;;;;10.07;8.20;;;;;;;;;;5033594;28;20473;-59
2021/09/14 10:59:17;;;;;;;9.13;6.77;;;;;;;;;;5034075;28;20840;-59
2021/09/14 11:01:44;;;;;;;8.07;7.23;;;;;;;;;;5034187;28;20457;-58
2021/09/14 11:04:12;;;;;;;9.17;8.27;;;;;;;;;;5032955;28;20850;-60
2021/09/14 11:06:39;;;;;;;10.80;8.40;;;;;;;;;;5033695;28;20472;-60
2021/09/14 11:09:07;;;;;;;8.10;7.30;;;;;;;;;;5032798;28;20527;-59
2021/09/14 11:11:35;;;;;;;9.63;7.00;;;;;;;;;;5033400;28;20445;-61
2021/09/14 11:14:03;;;;;;;8.30;7.50;;;;;;;;;;5037398;28;20460;-59
2021/09/14 11:16:30;;;;;;;10.63;7.87;;;;;;;;;;5035828;28;20782;-60
2021/09/14 11:18:59;;;;;;;23.37;20.83;;;;;;;;;;5041428;28;20488;-60
2021/09/14 11:21:27;;;;;;;8.13;7.33;;;;;;;;;;5038130;28;20492;-61
2021/09/14 11:23:54;;;;;;;8.43;7.40;;;;;;;;;;5037078;28;20500;-60
2021/09/14 11:26:22;;;;;;;7.40;6.70;;;;;;;;;;5033350;28;20522;-59
2021/09/14 11:28:56;;;;;;;8.13;7.33;;;;;;;;;;5033855;28;20878;-60
2021/09/14 11:31:27;;;;;;;8.20;7.40;;;;;;;;;;5033530;28;20508;-59
2021/09/14 11:33:54;;;;;;;7.70;6.93;;;;;;;;;;5033351;28;20449;-59
2021/09/14 11:36:21;;;;;;;12.03;7.70;;;;;;;;;;5032938;28;20896;-60
2021/09/14 11:38:58;;;;;;;7.83;7.13;;;;;;;;;;5033412;28;20506;-60
2021/09/14 11:41:31;;;;;;;8.53;7.73;;;;;;;;;;5034256;28;20465;-60
2021/09/14 11:43:58;;;;;;;7.13;6.53;;;;;;;;;;5033450;28;20442;-60
2021/09/14 11:46:27;;;;;;;7.20;6.53;;;;;;;;;;5032883;28;20885;-59
2021/09/14 11:48:55;;;;;;;6.60;5.70;;;;;;;;;;5033407;28;20550;-59
2021/09/14 11:51:23;;;;;;;9.90;6.90;;;;;;;;;;5034297;28;20860;-60
2021/09/14 11:53:51;;;;;;;7.63;6.50;;;;;;;;;;5034028;28;21092;-60
2021/09/14 11:56:20;;;;;;;6.53;5.93;;;;;;;;;;5033817;28;20465;-57
2021/09/14 11:58:48;;;;;;;7.23;6.53;;;;;;;;;;5033707;28;20502;-59
2021/09/14 12:01:15;;;;;;;16.83;7.90;;;;;;;;;;5033193;28;20929;-59
2021/09/14 12:03:45;;;;;;;15.03;8.10;;;;;;;;;;5033189;28;21004;-61
2021/09/14 12:06:13;;;;;;;8.20;7.40;;;;;;;;;;5032651;28;20468;-59
2021/09/14 12:08:41;;;;;;;7.70;5.97;;;;;;;;;;5032941;28;20449;-59
2021/09/14 12:11:09;;;;;;;101.33;15.30;;;;;;;;;;5032921;28;20515;-59
2021/09/14 12:13:40;;;;;;;43.10;11.73;;;;;;;;;;5032509;28;20449;-60
2021/09/14 12:16:10;;;;;;;52.57;9.87;;;;;;;;;;5033616;28;20503;-60
2021/09/14 12:18:40;;;;;;;15.00;7.00;;;;;;;;;;5032769;28;20433;-59
2021/09/14 12:21:09;;;;;;;6.47;5.97;;;;;;;;;;5032897;28;20449;-59
2021/09/14 12:23:36;;;;;;;9.30;6.00;;;;;;;;;;5032862;28;20503;-60
2021/09/14 12:26:04;;;;;;;9.13;6.10;;;;;;;;;;5032692;28;20968;-59
2021/09/14 12:28:31;;;;;;;26.60;7.10;;;;;;;;;;5032954;28;20445;-61
2021/09/14 12:30:58;;;;;;;7.90;6.13;;;;;;;;;;5036594;28;20480;-60
2021/09/14 12:33:26;;;;;;;10.90;6.40;;;;;;;;;;5036252;28;20937;-59
2021/09/14 12:35:53;;;;;;;7.07;6.00;;;;;;;;;;5036599;28;20472;-61
2021/09/14 12:38:22;;;;;;;10.20;6.90;;;;;;;;;;5036494;28;20581;-59
2021/09/14 12:40:49;;;;;;;8.67;6.40;;;;;;;;;;5036469;28;20445;-60
2021/09/14 12:43:16;;;;;;;6.03;5.50;;;;;;;;;;5036185;28;20990;-59
2021/09/14 12:45:43;;;;;;;6.40;5.90;;;;;;;;;;5035914;28;20527;-60
2021/09/14 12:48:10;;;;;;;6.60;5.90;;;;;;;;;;5036370;28;20453;-59
2021/09/14 12:50:38;;;;;;;7.40;6.73;;;;;;;;;;5036045;28;20972;-60
2021/09/14 12:53:05;;;;;;;6.13;5.63;;;;;;;;;;5035878;28;20453;-60
2021/09/14 12:55:37;;;;;;;6.57;5.10;;;;;;;;;;5036037;28;20473;-60
2021/09/14 12:58:05;;;;;;;12.27;7.53;;;;;;;;;;5035823;28;20453;-60
2021/09/14 13:00:33;;;;;;;15.43;8.63;;;;;;;;;;5036515;28;20861;-60
2021/09/14 13:03:00;;;;;;;6.43;5.90;;;;;;;;;;5036277;28;20457;-59
2021/09/14 13:05:29;;;;;;;11.60;6.37;;;;;;;;;;5035802;28;21030;-59
2021/09/14 13:07:56;;;;;;;99.53;16.47;;;;;;;;;;5035834;28;20458;-59
2021/09/14 13:10:24;;;;;;;9.87;6.90;;;;;;;;;;5036090;28;20511;-59
2021/09/14 13:16:10;;;;;;;19.17;7.20;;;;;;;;;;5035772;28;21007;-59
2021/09/14 13:18:28;;;;;;;47.30;9.60;;;;;;;;;;5031913;28;20432;-59
2021/09/14 13:20:55;;;;;;;7.20;6.60;;;;;;;;;;5035419;28;20445;-58
2021/09/14 13:23:23;;;;;;;12.60;8.87;;;;;;;;;;5036280;28;20449;-59
2021/09/14 13:25:50;;;;;;;7.23;6.30;;;;;;;;;;5035956;28;20489;-59
2021/09/14 13:28:19;;;;;;;17.77;6.97;;;;;;;;;;5035748;28;20437;-59
2021/09/14 13:30:46;;;;;;;7.83;6.37;;;;;;;;;;5035709;28;20481;-60
2021/09/14 13:33:14;;;;;;;8.30;7.47;;;;;;;;;;5035325;28;20906;-60
2021/09/14 13:35:41;;;;;;;7.47;6.80;;;;;;;;;;5036189;28;20465;-60
2021/09/14 13:38:09;;;;;;;7.20;6.60;;;;;;;;;;5036023;28;20453;-60
2021/09/14 13:40:38;;;;;;;11.73;8.07;;;;;;;;;;5035636;28;20449;-59
2021/09/14 13:43:05;;;;;;;7.83;7.03;;;;;;;;;;5036478;28;20453;-59
2021/09/14 13:48:21;;;;;;;8.40;7.70;;;;;;;;;;5035542;28;20405;-60
2021/09/14 13:50:48;;;;;;;8.57;7.77;;;;;;;;;;5035456;28;20562;-60
2021/09/14 13:53:16;;;;;;;8.73;7.10;;;;;;;;;;5035652;28;20571;-59
2021/09/14 13:55:44;;;;;;;7.23;6.63;;;;;;;;;;5035161;28;20572;-59
2021/09/14 13:58:11;;;;;;;7.70;6.90;;;;;;;;;;5034992;28;20503;-60
2021/09/14 14:00:40;;;;;;;7.83;7.13;;;;;;;;;;5035208;28;20441;-60
2021/09/14 14:03:07;;;;;;;6.97;6.27;;;;;;;;;;5035221;28;20817;-60
2021/09/14 14:05:34;;;;;;;7.73;6.87;;;;;;;;;;5035174;28;20539;-59
2021/09/14 14:08:01;;;;;;;8.40;7.57;;;;;;;;;;5035107;28;20503;-59
2021/09/14 14:10:29;;;;;;;8.77;7.60;;;;;;;;;;5035290;28;20894;-60
2021/09/14 14:12:56;;;;;;;7.10;6.50;;;;;;;;;;5034821;28;20472;-60
2021/09/14 14:15:23;;;;;;;8.63;6.40;;;;;;;;;;5035390;28;20469;-61
2021/09/14 14:17:52;;;;;;;10.13;6.40;;;;;;;;;;5035356;28;20449;-60
2021/09/14 14:20:19;;;;;;;8.60;6.83;;;;;;;;;;5035069;28;20442;-60
2021/09/14 14:22:47;;;;;;;7.07;6.37;;;;;;;;;;5034443;28;20453;-60
2021/09/14 14:25:14;;;;;;;8.63;7.13;;;;;;;;;;5034326;28;20466;-60
2021/09/14 14:27:41;;;;;;;7.47;6.70;;;;;;;;;;5035028;28;20555;-60
2021/09/14 14:30:09;;;;;;;9.87;7.77;;;;;;;;;;5035065;28;20477;-60
2021/09/14 14:32:36;;;;;;;8.30;7.50;;;;;;;;;;5034496;28;20449;-60
2021/09/14 14:35:05;;;;;;;7.57;6.67;;;;;;;;;;5034581;28;20477;-59
2021/09/14 14:37:33;;;;;;;8.90;6.90;;;;;;;;;;5034443;28;20449;-60
2021/09/14 14:40:00;;;;;;;7.27;6.57;;;;;;;;;;5034017;28;20568;-60
2021/09/14 14:42:27;;;;;;;8.97;6.60;;;;;;;;;;5034173;28;20556;-62
2021/09/14 14:44:54;;;;;;;7.33;6.70;;;;;;;;;;5034987;28;20900;-59
2021/09/14 14:47:22;;;;;;;7.87;7.20;;;;;;;;;;5035111;28;20434;-60
2021/09/14 14:49:49;;;;;;;10.17;6.80;;;;;;;;;;5034564;28;21062;-60
2021/09/14 14:52:18;;;;;;;10.57;6.97;;;;;;;;;;5033833;28;20526;-60
2021/09/14 14:54:45;;;;;;;10.87;6.87;;;;;;;;;;5034408;28;20491;-60
2021/09/14 14:57:12;;;;;;;8.07;7.37;;;;;;;;;;5034235;28;20453;-60
2021/09/14 14:59:39;;;;;;;7.77;7.17;;;;;;;;;;5034063;28;20507;-61
2021/09/14 15:02:07;;;;;;;7.73;7.00;;;;;;;;;;5034054;28;20445;-59
2021/09/14 15:04:34;;;;;;;7.90;7.20;;;;;;;;;;5033953;28;20523;-59
2021/09/14 15:07:01;;;;;;;8.33;7.53;;;;;;;;;;5034578;28;20445;-60
2021/09/14 15:09:30;;;;;;;13.07;7.40;;;;;;;;;;5033842;28;20932;-59
2021/09/14 15:11:57;;;;;;;6.83;6.33;;;;;;;;;;5034211;28;20441;-60
2021/09/14 15:14:25;;;;;;;8.97;7.37;;;;;;;;;;5033704;28;20515;-60
2021/09/14 15:16:52;;;;;;;10.53;7.47;;;;;;;;;;5033721;28;20449;-59
2021/09/14 15:19:19;;;;;;;8.23;7.40;;;;;;;;;;5033155;28;20869;-59
2021/09/14 15:21:48;;;;;;;7.10;6.47;;;;;;;;;;5033389;28;20495;-59
2021/09/14 15:24:15;;;;;;;9.07;8.17;;;;;;;;;;5034215;28;20447;-60
2021/09/14 15:26:44;;;;;;;10.87;6.87;;;;;;;;;;5033731;28;20499;-59
2021/09/14 15:29:11;;;;;;;7.60;6.90;;;;;;;;;;5033947;28;20445;-60
2021/09/14 15:31:38;;;;;;;7.97;7.20;;;;;;;;;;5032997;28;20895;-60
2021/09/14 15:34:06;;;;;;;8.57;7.93;;;;;;;;;;5033790;28;20503;-60